Time;durP1;ratioP1;P1;durP2;ratioP2;P2;SDS_P1;SDS_P2;PMS_P1;PMS_P2;Temp;Humidity;BMP_temperature;BMP_pressure;BME280_temperature;BME280_humidity;BME280_pressure;Samples;Min_cycle;Max_cycle;Signal;HPM_P1;HPM_P2
2023/05/14 00:00:49;;;;;;;;;;;;;;;9.20;72.32;102092.41;5026639;28;19950;-70
2023/05/14 00:03:14;;;;;;;;;;;;;;;9.12;72.32;102092.75;5060568;28;20593;-71
2023/05/14 00:05:40;;;;;;;;;;;;;;;9.08;72.67;102086.19;5041754;28;19933;-72
2023/05/14 00:08:08;;;;;;;;;;;;;;;9.00;72.67;102082.81;5048183;28;20433;-73
2023/05/14 00:10:34;;;;;;;;;;;;;;;8.90;72.60;102077.19;5061169;28;19941;-70
2023/05/14 00:12:59;;;;;;;;;;;;;;;8.81;73.35;102080.44;5058884;28;19955;-72
2023/05/14 00:15:25;;;;;;;;;;;;;;;8.83;73.84;102079.16;5060473;28;19933;-70
2023/05/14 00:17:51;;;;;;;;;;;;;;;8.74;73.62;102064.47;5060175;28;20353;-70
2023/05/14 00:20:16;;;;;;;;;;;;;;;8.68;73.47;102076.06;5057538;28;19942;-71
2023/05/14 00:22:42;;;;;;;;;;;;;;;8.64;73.72;102069.53;5053336;28;19970;-71
2023/05/14 00:25:08;;;;;;;;;;;;;;;8.59;74.43;102064.84;5058989;28;19937;-71
2023/05/14 00:27:34;;;;;;;;;;;;;;;8.55;75.52;102057.53;5057872;28;19963;-71
2023/05/14 00:30:00;;;;;;;;;;;;;;;8.45;76.04;102071.38;5057302;28;19989;-70
2023/05/14 00:32:26;;;;;;;;;;;;;;;8.53;76.76;102062.25;5060899;28;20329;-73
2023/05/14 00:34:51;;;;;;;;;;;;;;;8.51;77.03;102064.34;5045208;28;19941;-71
2023/05/14 00:37:17;;;;;;;;;;;;;;;8.35;76.31;102055.06;5058056;28;20113;-69
2023/05/14 00:39:42;;;;;;;;;;;;;;;8.36;77.27;102046.84;5031732;28;19934;-70
2023/05/14 00:42:08;;;;;;;;;;;;;;;8.35;77.89;102055.91;5064692;28;20055;-70
2023/05/14 00:44:34;;;;;;;;;;;;;;;8.40;77.48;102047.19;5056194;28;20301;-73
2023/05/14 00:47:00;;;;;;;;;;;;;;;8.46;77.03;102062.31;5043880;28;19964;-72
2023/05/14 00:49:26;;;;;;;;;;;;;;;8.34;77.24;102054.25;5064133;28;19944;-73
2023/05/14 00:51:52;;;;;;;;;;;;;;;8.26;77.49;102057.19;5049649;28;20363;-74
2023/05/14 00:54:18;;;;;;;;;;;;;;;8.35;76.82;102069.25;5057450;28;19955;-71
2023/05/14 00:56:44;;;;;;;;;;;;;;;8.40;76.94;102072.06;5042233;28;20037;-71
2023/05/14 00:59:10;;;;;;;;;;;;;;;8.27;76.40;102064.16;5056201;28;20455;-72
2023/05/14 01:01:35;;;;;;;;;;;;;;;8.28;77.12;102071.13;5048284;28;20023;-70
2023/05/14 01:04:01;;;;;;;;;;;;;;;8.21;76.98;102060.53;5064722;28;19991;-70
2023/05/14 01:06:36;;;;;;;;;;;;;;;8.24;76.86;102072.59;5083460;28;20016;-70
2023/05/14 01:09:17;;;;;;;;;;;;;;;8.23;76.91;102068.31;5043860;28;19940;-70
2023/05/14 01:11:58;;;;;;;;;;;;;;;8.27;77.79;102066.84;5062802;28;19941;-73
2023/05/14 01:14:30;;;;;;;;;;;;;;;8.26;77.55;102062.50;5043683;28;20298;-71
2023/05/14 01:16:57;;;;;;;;;;;;;;;8.19;76.88;102067.91;5052200;28;19967;-71
2023/05/14 01:19:32;;;;;;;;;;;;;;;8.25;77.56;102076.91;5058247;28;19982;-70
2023/05/14 01:21:57;;;;;;;;;;;;;;;8.15;77.42;102073.94;5058865;28;19950;-71
2023/05/14 01:24:23;;;;;;;;;;;;;;;8.08;77.56;102071.34;5056864;28;19968;-71
2023/05/14 01:26:49;;;;;;;;;;;;;;;8.04;77.61;102070.13;5057594;28;19947;-74
2023/05/14 01:29:18;;;;;;;;;;;;;;;8.01;77.52;102069.78;5058003;28;19935;-72
2023/05/14 01:31:46;;;;;;;;;;;;;;;8.04;77.83;102067.47;5060719;28;19961;-71
2023/05/14 01:34:14;;;;;;;;;;;;;;;8.04;77.49;102064.78;5057737;28;19932;-73
2023/05/14 01:36:41;;;;;;;;;;;;;;;8.09;77.83;102067.63;5058182;28;19929;-69
2023/05/14 01:39:10;;;;;;;;;;;;;;;7.97;78.09;102065.91;5054667;28;20559;-70
2023/05/14 01:41:38;;;;;;;;;;;;;;;7.96;78.21;102066.94;5051438;28;19947;-72
2023/05/14 01:44:04;;;;;;;;;;;;;;;8.04;78.72;102061.31;5057955;28;20028;-72
2023/05/14 01:46:30;;;;;;;;;;;;;;;7.94;78.96;102067.97;5040554;28;20052;-71
2023/05/14 01:48:55;;;;;;;;;;;;;;;7.92;78.90;102062.06;5062174;28;20370;-71
2023/05/14 01:51:21;;;;;;;;;;;;;;;7.93;79.32;102057.53;5055705;28;20978;-71
2023/05/14 01:53:46;;;;;;;;;;;;;;;7.91;79.56;102063.06;5058598;28;20504;-73
2023/05/14 01:56:12;;;;;;;;;;;;;;;7.93;80.06;102062.88;5063445;28;20407;-69
2023/05/14 01:58:37;;;;;;;;;;;;;;;7.94;79.71;102065.31;5043191;28;19935;-72
2023/05/14 02:01:03;;;;;;;;;;;;;;;7.89;80.05;102073.16;5057534;28;20024;-73
2023/05/14 02:03:31;;;;;;;;;;;;;;;7.85;79.88;102071.94;5047285;28;20046;-69
2023/05/14 02:05:57;;;;;;;;;;;;;;;7.77;79.62;102064.22;5052043;28;20434;-71
2023/05/14 02:08:22;;;;;;;;;;;;;;;7.74;79.26;102063.84;5063508;28;19985;-69
2023/05/14 02:10:48;;;;;;;;;;;;;;;7.77;79.59;102072.22;5061180;28;19981;-70
2023/05/14 02:13:13;;;;;;;;;;;;;;;7.80;79.73;102061.13;5048508;28;19960;-74
2023/05/14 02:15:39;;;;;;;;;;;;;;;7.72;80.13;102061.38;5056849;28;20297;-73
2023/05/14 02:18:05;;;;;;;;;;;;;;;7.72;80.72;102049.91;5047415;28;20139;-72
2023/05/14 02:20:30;;;;;;;;;;;;;;;7.75;80.80;102050.31;5054873;28;20356;-72
2023/05/14 02:22:56;;;;;;;;;;;;;;;7.72;81.33;102050.72;5061495;28;19958;-73
2023/05/14 02:25:22;;;;;;;;;;;;;;;7.69;80.99;102051.16;5043500;28;19934;-72
2023/05/14 02:27:48;;;;;;;;;;;;;;;7.63;80.51;102058.19;5060908;28;20035;-72
2023/05/14 02:30:14;;;;;;;;;;;;;;;7.61;81.07;102059.44;5060190;28;19934;-73
2023/05/14 02:32:40;;;;;;;;;;;;;;;7.58;80.92;102050.00;5063669;28;19963;-71
2023/05/14 02:35:05;;;;;;;;;;;;;;;7.63;80.71;102052.84;5042404;28;20255;-71
2023/05/14 02:37:31;;;;;;;;;;;;;;;7.50;80.69;102049.47;5058914;28;20460;-73
2023/05/14 02:39:59;;;;;;;;;;;;;;;7.46;81.08;102048.28;5058172;28;19937;-74
2023/05/14 02:42:25;;;;;;;;;;;;;;;7.39;81.51;102045.69;5048375;28;20327;-72
2023/05/14 02:44:51;;;;;;;;;;;;;;;7.35;82.24;102042.63;5051136;28;19942;-69
2023/05/14 02:47:17;;;;;;;;;;;;;;;7.26;82.31;102040.44;5058113;28;19952;-70
2023/05/14 02:49:42;;;;;;;;;;;;;;;7.20;82.80;102039.44;5061952;28;19944;-70
2023/05/14 02:52:08;;;;;;;;;;;;;;;7.20;82.91;102035.97;5063156;28;19956;-71
2023/05/14 02:54:33;;;;;;;;;;;;;;;7.26;83.45;102029.78;5042839;28;19936;-71
2023/05/14 02:56:59;;;;;;;;;;;;;;;7.25;83.88;102031.63;5059414;28;19987;-70
2023/05/14 02:59:25;;;;;;;;;;;;;;;7.19;83.89;102037.81;5070506;28;19975;-71
2023/05/14 03:01:51;;;;;;;;;;;;;;;7.11;83.69;102038.06;5050100;28;19958;-73
2023/05/14 03:04:17;;;;;;;;;;;;;;;7.07;84.50;102036.88;5058596;28;19942;-72
2023/05/14 03:06:42;;;;;;;;;;;;;;;6.99;84.27;102029.94;5060542;28;19952;-73
2023/05/14 03:09:07;;;;;;;;;;;;;;;6.95;84.36;102033.25;5059438;28;19936;-72
2023/05/14 03:11:34;;;;;;;;;;;;;;;6.92;84.75;102025.69;5051517;28;19937;-73
2023/05/14 03:14:00;;;;;;;;;;;;;;;6.94;84.83;102023.63;5047204;28;20028;-72
2023/05/14 03:16:25;;;;;;;;;;;;;;;6.94;85.03;102026.28;5058242;28;20035;-71
2023/05/14 03:18:51;;;;;;;;;;;;;;;6.96;85.19;102024.22;5056121;28;19979;-72
2023/05/14 03:21:16;;;;;;;;;;;;;;;7.10;84.50;102031.91;5041668;28;19935;-72
2023/05/14 03:23:42;;;;;;;;;;;;;;;7.11;84.44;102030.06;5051851;28;20139;-70
2023/05/14 03:26:08;;;;;;;;;;;;;;;7.11;84.21;102036.22;5056770;28;19935;-72
2023/05/14 03:28:33;;;;;;;;;;;;;;;7.02;84.48;102029.50;5064249;28;20282;-73
2023/05/14 03:30:59;;;;;;;;;;;;;;;7.12;84.07;102039.72;5056828;28;19933;-73
2023/05/14 03:33:24;;;;;;;;;;;;;;;6.98;85.01;102032.84;5045576;28;19991;-71
2023/05/14 03:35:50;;;;;;;;;;;;;;;7.01;84.79;102037.72;5048149;28;19938;-72
2023/05/14 03:38:16;;;;;;;;;;;;;;;6.93;84.99;102035.31;5049196;28;19942;-71
2023/05/14 03:40:41;;;;;;;;;;;;;;;6.91;85.09;102042.69;5071255;28;19936;-73
2023/05/14 03:43:06;;;;;;;;;;;;;;;6.96;84.65;102038.34;5059943;28;19951;-72
2023/05/14 03:45:32;;;;;;;;;;;;;;;6.92;85.13;102036.34;5043747;28;20057;-72
2023/05/14 03:47:58;;;;;;;;;;;;;;;6.91;84.69;102042.69;5034144;28;19962;-72
2023/05/14 03:50:24;;;;;;;;;;;;;;;6.95;84.79;102038.56;5058562;28;20018;-73
2023/05/14 03:52:51;;;;;;;;;;;;;;;6.97;85.16;102037.31;5029496;28;20418;-70
2023/05/14 03:55:20;;;;;;;;;;;;;;;7.01;85.09;102037.72;5045389;28;20423;-70
2023/05/14 03:57:47;;;;;;;;;;;;;;;7.08;85.31;102035.84;5043502;28;20273;-70
2023/05/14 04:00:13;;;;;;;;;;;;;;;7.16;85.19;102040.91;5048519;28;20565;-70
2023/05/14 04:02:44;;;;;;;;;;;;;;;7.21;85.39;102041.06;5053572;28;19961;-73
2023/05/14 04:05:10;;;;;;;;;;;;;;;7.18;85.62;102041.53;5047217;28;19948;-73
2023/05/14 04:07:35;;;;;;;;;;;;;;;7.25;85.31;102041.47;5048445;28;20417;-71
2023/05/14 04:10:01;;;;;;;;;;;;;;;7.26;85.37;102041.25;5058610;28;19935;-72
2023/05/14 04:12:27;;;;;;;;;;;;;;;7.36;85.21;102040.75;5042914;28;19950;-73
2023/05/14 04:14:53;;;;;;;;;;;;;;;7.52;84.66;102044.72;5065906;28;19937;-72
2023/05/14 04:17:21;;;;;;;;;;;;;;;7.51;85.00;102035.09;5044167;28;20616;-72
2023/05/14 04:19:47;;;;;;;;;;;;;;;7.57;85.06;102047.56;5060755;28;19944;-73
2023/05/14 04:22:12;;;;;;;;;;;;;;;7.61;84.37;102038.13;5038513;28;19949;-72
2023/05/14 04:24:38;;;;;;;;;;;;;;;7.63;84.88;102039.53;5040656;28;19960;-71
2023/05/14 04:27:03;;;;;;;;;;;;;;;7.62;84.23;102045.06;5060752;28;19971;-72
2023/05/14 04:29:29;;;;;;;;;;;;;;;7.69;84.54;102040.50;5059742;28;20351;-73
2023/05/14 04:31:55;;;;;;;;;;;;;;;7.73;84.69;102035.56;5057008;28;19991;-71
2023/05/14 04:34:20;;;;;;;;;;;;;;;7.79;84.19;102034.66;5041252;28;19937;-71
2023/05/14 04:36:46;;;;;;;;;;;;;;;7.90;84.34;102033.94;5061590;28;20432;-72
2023/05/14 04:39:11;;;;;;;;;;;;;;;7.99;83.99;102035.28;5060302;28;19937;-73
2023/05/14 04:41:37;;;;;;;;;;;;;;;8.11;84.20;102033.53;5061426;28;19942;-72
2023/05/14 04:44:02;;;;;;;;;;;;;;;8.22;84.03;102034.66;5059565;28;20434;-71
2023/05/14 04:46:28;;;;;;;;;;;;;;;8.29;84.03;102035.41;5058552;28;19954;-73
2023/05/14 04:48:53;;;;;;;;;;;;;;;8.32;83.51;102034.94;5059687;28;19939;-73
2023/05/14 04:51:19;;;;;;;;;;;;;;;8.32;84.02;102026.94;5055682;28;19941;-72
2023/05/14 04:53:44;;;;;;;;;;;;;;;8.35;83.59;102039.03;5058152;28;20371;-73
2023/05/14 04:56:12;;;;;;;;;;;;;;;8.39;83.91;102025.03;5051603;28;20472;-71
2023/05/14 04:58:38;;;;;;;;;;;;;;;8.41;83.52;102033.66;5059986;28;20082;-72
2023/05/14 05:01:04;;;;;;;;;;;;;;;8.44;83.41;102027.84;5052993;28;20368;-71
2023/05/14 05:03:30;;;;;;;;;;;;;;;8.57;83.41;102034.06;5058035;28;20486;-72
2023/05/14 05:05:55;;;;;;;;;;;;;;;8.72;82.66;102029.97;5055098;28;20051;-71
2023/05/14 05:08:21;;;;;;;;;;;;;;;8.89;82.22;102030.16;5056448;28;19960;-72
2023/05/14 05:10:46;;;;;;;;;;;;;;;9.08;81.51;102024.75;5046563;28;20414;-73
2023/05/14 05:13:12;;;;;;;;;;;;;;;9.29;80.25;102027.72;5051846;28;19959;-72
2023/05/14 05:15:37;;;;;;;;;;;;;;;9.65;77.92;102027.75;5029531;28;20279;-73
2023/05/14 05:18:03;;;;;;;;;;;;;;;9.90;76.65;102031.03;5058596;28;19939;-73
2023/05/14 05:20:28;;;;;;;;;;;;;;;10.10;76.17;102019.97;5058689;28;19943;-72
2023/05/14 05:22:54;;;;;;;;;;;;;;;10.30;73.90;102024.97;5055734;28;19967;-72
2023/05/14 05:25:20;;;;;;;;;;;;;;;10.38;74.18;102028.06;5053931;28;19940;-73
2023/05/14 05:27:45;;;;;;;;;;;;;;;10.60;73.69;102025.56;5059123;28;19997;-73
2023/05/14 05:30:11;;;;;;;;;;;;;;;10.83;72.10;102021.16;5031695;28;19931;-70
2023/05/14 05:32:37;;;;;;;;;;;;;;;10.97;71.20;102033.19;5056946;28;19960;-71
2023/05/14 05:35:05;;;;;;;;;;;;;;;11.18;70.39;102032.53;5061581;28;19936;-71
2023/05/14 05:37:30;;;;;;;;;;;;;;;11.35;70.54;102039.78;5064240;28;19973;-72
2023/05/14 05:39:56;;;;;;;;;;;;;;;11.45;69.90;102037.28;5049210;28;20678;-73
2023/05/14 05:42:22;;;;;;;;;;;;;;;11.43;70.14;102039.38;5057078;28;20012;-71
2023/05/14 05:44:47;;;;;;;;;;;;;;;11.57;70.02;102040.66;5033562;28;19960;-71
2023/05/14 05:47:12;;;;;;;;;;;;;;;11.74;69.13;102030.75;5062486;28;19959;-71
2023/05/14 05:49:38;;;;;;;;;;;;;;;11.77;68.63;102029.44;5044868;28;19941;-71
2023/05/14 05:52:04;;;;;;;;;;;;;;;11.91;69.17;102037.97;5062737;28;19992;-73
2023/05/14 05:54:31;;;;;;;;;;;;;;;12.06;68.52;102032.84;5060732;28;20409;-72
2023/05/14 05:56:56;;;;;;;;;;;;;;;12.19;68.75;102035.16;5047732;28;19943;-71
2023/05/14 05:59:23;;;;;;;;;;;;;;;12.26;68.04;102030.44;5060471;28;19944;-70
2023/05/14 06:01:48;;;;;;;;;;;;;;;12.53;67.21;102037.72;5043746;28;20332;-71
2023/05/14 06:04:14;;;;;;;;;;;;;;;12.62;66.71;102041.59;5052118;28;19941;-71
2023/05/14 06:06:39;;;;;;;;;;;;;;;12.79;66.51;102038.81;5048723;28;20027;-70
2023/05/14 06:09:05;;;;;;;;;;;;;;;12.94;66.14;102033.63;5065909;28;20684;-70
2023/05/14 06:11:31;;;;;;;;;;;;;;;13.26;65.02;102036.34;5060935;28;20358;-73
2023/05/14 06:13:57;;;;;;;;;;;;;;;13.29;64.64;102033.16;5067819;28;19965;-72
2023/05/14 06:16:23;;;;;;;;;;;;;;;13.51;64.01;102030.38;5050703;28;19941;-73
2023/05/14 06:18:48;;;;;;;;;;;;;;;13.71;64.19;102034.28;5046547;28;19979;-72
2023/05/14 06:21:14;;;;;;;;;;;;;;;13.61;63.16;102035.81;5062820;28;19939;-73
2023/05/14 06:23:40;;;;;;;;;;;;;;;13.85;62.70;102020.09;5036142;28;19953;-72
2023/05/14 06:26:06;;;;;;;;;;;;;;;14.03;62.54;102023.44;5060817;28;20022;-73
2023/05/14 06:28:31;;;;;;;;;;;;;;;14.33;61.40;102028.97;5076011;28;19945;-71
2023/05/14 06:30:57;;;;;;;;;;;;;;;14.43;60.31;102020.94;5058897;28;19919;-72
2023/05/14 06:33:29;;;;;;;;;;;;;;;14.64;60.59;102023.72;5059980;28;19957;-71
2023/05/14 06:35:55;;;;;;;;;;;;;;;14.89;59.62;102025.66;5064133;28;19948;-70
2023/05/14 06:38:21;;;;;;;;;;;;;;;14.92;60.06;102028.63;5053564;28;19944;-71
2023/05/14 06:40:46;;;;;;;;;;;;;;;15.03;59.25;102024.03;5059830;28;19945;-70
2023/05/14 06:43:14;;;;;;;;;;;;;;;15.11;58.96;102030.81;5062108;28;19990;-71
2023/05/14 06:45:40;;;;;;;;;;;;;;;15.16;59.13;102026.22;5050634;28;19947;-69
2023/05/14 06:48:05;;;;;;;;;;;;;;;15.34;59.07;102018.69;5067785;28;19961;-73
2023/05/14 06:50:31;;;;;;;;;;;;;;;15.47;58.00;102020.84;5047758;28;19944;-70
2023/05/14 06:52:56;;;;;;;;;;;;;;;15.59;57.30;102023.25;5062593;28;19965;-72
2023/05/14 06:55:22;;;;;;;;;;;;;;;15.70;57.42;102024.88;5044354;28;19940;-71
2023/05/14 06:57:47;;;;;;;;;;;;;;;15.86;57.83;102020.28;5060068;28;19945;-73
2023/05/14 07:00:13;;;;;;;;;;;;;;;16.03;56.81;102024.25;5065212;28;19928;-73
2023/05/14 07:02:39;;;;;;;;;;;;;;;16.21;56.37;102013.94;5061847;28;19955;-72
2023/05/14 07:05:05;;;;;;;;;;;;;;;16.21;56.41;102020.16;5062614;28;19936;-71
2023/05/14 07:07:30;;;;;;;;;;;;;;;16.41;56.27;102013.84;5058797;28;19962;-72
2023/05/14 07:09:56;;;;;;;;;;;;;;;16.74;55.82;102009.66;5067815;28;19967;-70
2023/05/14 07:12:21;;;;;;;;;;;;;;;16.90;55.28;102013.06;5063820;28;19967;-72
2023/05/14 07:14:47;;;;;;;;;;;;;;;17.10;53.64;102004.78;5061190;28;20308;-71
2023/05/14 07:17:12;;;;;;;;;;;;;;;17.00;55.17;102002.19;5064175;28;19957;-73
2023/05/14 07:19:38;;;;;;;;;;;;;;;17.09;53.54;101999.66;5027178;28;19960;-70
2023/05/14 07:22:03;;;;;;;;;;;;;;;17.32;51.99;102000.81;5042537;28;20054;-71
2023/05/14 07:24:29;;;;;;;;;;;;;;;17.08;53.90;101989.94;5054895;28;19947;-73
2023/05/14 07:26:56;;;;;;;;;;;;;;;17.33;53.52;101995.13;5053183;28;19980;-72
2023/05/14 07:29:23;;;;;;;;;;;;;;;17.40;54.07;101998.28;5053908;28;19967;-70
2023/05/14 07:31:49;;;;;;;;;;;;;;;17.55;53.30;101991.94;5047477;28;19983;-72
2023/05/14 07:34:14;;;;;;;;;;;;;;;17.89;54.43;101983.75;5062769;28;19942;-72
2023/05/14 07:36:40;;;;;;;;;;;;;;;17.90;52.22;101993.50;5045532;28;19937;-70
2023/05/14 07:39:05;;;;;;;;;;;;;;;17.99;51.02;101990.94;5045137;28;19947;-71
2023/05/14 07:41:31;;;;;;;;;;;;;;;18.17;51.51;101990.19;5057563;28;19927;-70
2023/05/14 07:43:57;;;;;;;;;;;;;;;18.48;51.66;101976.22;5068111;28;20386;-70
2023/05/14 07:46:22;;;;;;;;;;;;;;;18.63;49.98;101977.91;5062348;28;20059;-70
2023/05/14 07:48:48;;;;;;;;;;;;;;;18.79;48.38;101973.91;5055203;28;19930;-70
2023/05/14 07:51:13;;;;;;;;;;;;;;;18.82;48.93;101968.69;5058526;28;19980;-72
2023/05/14 07:53:39;;;;;;;;;;;;;;;18.66;47.91;101970.03;5057710;28;19947;-74
2023/05/14 07:56:05;;;;;;;;;;;;;;;18.84;47.98;101970.31;5063050;28;19940;-72
2023/05/14 07:58:31;;;;;;;;;;;;;;;18.99;47.22;101964.63;5076389;28;19955;-71
2023/05/14 08:00:56;;;;;;;;;;;;;;;19.56;46.42;101970.69;5065402;28;20024;-72
2023/05/14 08:03:22;;;;;;;;;;;;;;;19.15;45.90;101970.59;5047565;28;20087;-71
2023/05/14 08:05:47;;;;;;;;;;;;;;;19.29;45.89;101961.38;5063448;28;19954;-72
2023/05/14 08:08:13;;;;;;;;;;;;;;;19.23;45.98;101965.28;5057403;28;19958;-71
2023/05/14 08:10:38;;;;;;;;;;;;;;;20.00;48.67;101966.63;5051489;28;19952;-74
2023/05/14 08:13:04;;;;;;;;;;;;;;;19.74;45.76;101967.13;5058391;28;19976;-70
2023/05/14 08:15:30;;;;;;;;;;;;;;;19.77;46.04;101954.81;5057666;28;19946;-71
2023/05/14 08:17:55;;;;;;;;;;;;;;;19.84;45.49;101966.91;5062206;28;19928;-71
2023/05/14 08:20:21;;;;;;;;;;;;;;;19.76;45.98;101969.53;5058636;28;20492;-71
2023/05/14 08:22:47;;;;;;;;;;;;;;;19.95;44.97;101964.00;5056270;28;20340;-69
2023/05/14 08:25:13;;;;;;;;;;;;;;;19.63;46.23;101954.81;5075694;28;20277;-72
2023/05/14 08:27:38;;;;;;;;;;;;;;;19.63;44.58;101966.50;5058327;28;20723;-73
2023/05/14 08:30:05;;;;;;;;;;;;;;;20.04;46.26;101954.81;5053842;28;19976;-72
2023/05/14 08:32:31;;;;;;;;;;;;;;;20.38;44.76;101951.63;5058426;28;20420;-71
2023/05/14 08:34:56;;;;;;;;;;;;;;;20.17;44.18;101953.19;5059884;28;19944;-72
2023/05/14 08:37:22;;;;;;;;;;;;;;;20.53;42.75;101944.28;5055400;28;19942;-69
2023/05/14 08:39:48;;;;;;;;;;;;;;;20.39;43.16;101947.00;5061572;28;20344;-71
2023/05/14 08:42:14;;;;;;;;;;;;;;;20.38;44.07;101937.22;5057018;28;20000;-70
2023/05/14 08:44:46;;;;;;;;;;;;;;;20.82;44.36;101938.41;5026846;28;19937;-73
2023/05/14 08:47:14;;;;;;;;;;;;;;;20.74;42.44;101934.50;5053371;28;20013;-71
2023/05/14 08:49:42;;;;;;;;;;;;;;;20.75;41.68;101930.69;5038929;28;21399;-72
2023/05/14 08:52:09;;;;;;;;;;;;;;;20.91;40.70;101931.91;5056279;28;19951;-70
2023/05/14 08:54:34;;;;;;;;;;;;;;;21.29;41.12;101928.78;5055792;28;19936;-71
2023/05/14 08:57:02;;;;;;;;;;;;;;;21.31;41.12;101920.28;5044386;28;20581;-74
2023/05/14 08:59:27;;;;;;;;;;;;;;;21.05;39.50;101923.66;5057944;28;19939;-73
2023/05/14 09:01:53;;;;;;;;;;;;;;;21.28;39.52;101916.28;5044666;28;19956;-72
2023/05/14 09:04:20;;;;;;;;;;;;;;;21.60;37.95;101922.50;5044636;28;19974;-73
2023/05/14 09:06:48;;;;;;;;;;;;;;;21.73;37.56;101913.38;5045907;28;20498;-72
2023/05/14 09:09:13;;;;;;;;;;;;;;;22.10;37.07;101908.53;5060002;28;20314;-71
2023/05/14 09:11:41;;;;;;;;;;;;;;;21.89;36.69;101906.38;5041657;28;19937;-71
2023/05/14 09:14:06;;;;;;;;;;;;;;;21.78;38.01;101903.16;5054554;28;20646;-70
2023/05/14 09:16:32;;;;;;;;;;;;;;;22.19;37.35;101903.88;5063543;28;19991;-72
2023/05/14 09:18:58;;;;;;;;;;;;;;;22.00;37.57;101895.97;5044956;28;19931;-70
2023/05/14 09:21:23;;;;;;;;;;;;;;;21.98;36.78;101890.84;5067303;28;19937;-71
2023/05/14 09:23:52;;;;;;;;;;;;;;;22.07;36.58;101904.47;5049688;28;20440;-71
2023/05/14 09:26:22;;;;;;;;;;;;;;;21.63;35.62;101900.06;5065934;28;19936;-71
2023/05/14 09:28:47;;;;;;;;;;;;;;;21.89;35.51;101898.22;5065405;28;20007;-71
2023/05/14 09:31:13;;;;;;;;;;;;;;;22.12;33.86;101892.63;5056095;28;19936;-71
2023/05/14 09:33:38;;;;;;;;;;;;;;;22.16;35.70;101888.16;5064734;28;19962;-70
2023/05/14 09:36:04;;;;;;;;;;;;;;;21.89;35.73;101890.03;5057327;28;20629;-72
2023/05/14 09:38:30;;;;;;;;;;;;;;;22.39;34.25;101886.06;5064306;28;20037;-69
2023/05/14 09:40:56;;;;;;;;;;;;;;;22.06;36.78;101887.31;5060494;28;20135;-72
2023/05/14 09:43:22;;;;;;;;;;;;;;;22.08;35.94;101889.72;5043449;28;19977;-72
2023/05/14 09:45:48;;;;;;;;;;;;;;;22.20;34.25;101894.56;5054946;28;20434;-72
2023/05/14 09:48:13;;;;;;;;;;;;;;;21.88;34.07;101890.31;5058082;28;19950;-72
2023/05/14 09:50:42;;;;;;;;;;;;;;;22.02;33.77;101877.38;5061109;28;19939;-73
2023/05/14 09:53:08;;;;;;;;;;;;;;;21.61;33.57;101892.22;5066647;28;19988;-73
2023/05/14 09:55:35;;;;;;;;;;;;;;;21.37;33.60;101887.16;5056708;28;19974;-73
2023/05/14 09:58:00;;;;;;;;;;;;;;;21.47;34.01;101875.16;5071467;28;19934;-75
2023/05/14 10:00:26;;;;;;;;;;;;;;;22.15;34.53;101862.81;5047799;28;19941;-72
2023/05/14 10:02:52;;;;;;;;;;;;;;;21.65;31.90;101867.84;5063576;28;19952;-71
2023/05/14 10:05:19;;;;;;;;;;;;;;;22.36;32.20;101862.16;5057484;28;19938;-75
2023/05/14 10:07:50;;;;;;;;;;;;;;;22.28;32.23;101870.00;5049517;28;20555;-69
2023/05/14 10:10:17;;;;;;;;;;;;;;;22.31;32.34;101863.13;5049575;28;19940;-73
2023/05/14 10:12:47;;;;;;;;;;;;;;;22.42;33.46;101861.69;5049379;28;19982;-70
2023/05/14 10:15:16;;;;;;;;;;;;;;;22.95;32.62;101863.19;5035087;28;19941;-72
2023/05/14 10:17:47;;;;;;;;;;;;;;;22.03;32.19;101849.78;5048189;28;19938;-72
2023/05/14 10:20:16;;;;;;;;;;;;;;;21.63;33.40;101851.81;5068379;28;20004;-73
2023/05/14 10:22:42;;;;;;;;;;;;;;;21.26;32.89;101853.88;5058446;28;20600;-72
2023/05/14 10:25:10;;;;;;;;;;;;;;;21.61;33.07;101853.22;5065321;28;20020;-73
2023/05/14 10:27:35;;;;;;;;;;;;;;;22.21;33.00;101850.59;5063897;28;19959;-73
2023/05/14 10:30:04;;;;;;;;;;;;;;;22.79;32.39;101846.50;5074216;28;19933;-73
2023/05/14 10:32:31;;;;;;;;;;;;;;;23.30;31.97;101847.47;5058626;28;20489;-73
2023/05/14 10:35:00;;;;;;;;;;;;;;;23.50;31.14;101851.34;5053605;28;19991;-73
2023/05/14 10:37:26;;;;;;;;;;;;;;;23.68;30.86;101849.38;5062953;28;19933;-73
2023/05/14 10:40:00;;;;;;;;;;;;;;;22.82;31.54;101843.09;5048171;28;19938;-72
2023/05/14 10:42:26;;;;;;;;;;;;;;;22.71;30.96;101835.59;5059565;28;19950;-72
2023/05/14 10:45:00;;;;;;;;;;;;;;;23.19;30.55;101829.03;5061479;28;19937;-70
2023/05/14 10:47:27;;;;;;;;;;;;;;;22.76;32.34;101840.88;5060796;28;19951;-75
2023/05/14 10:49:54;;;;;;;;;;;;;;;22.66;33.67;101841.22;5057947;28;20423;-74
2023/05/14 10:52:20;;;;;;;;;;;;;;;23.14;33.73;101838.22;5065708;28;19950;-73
2023/05/14 10:54:53;;;;;;;;;;;;;;;22.67;33.43;101831.91;5067587;28;19933;-73
2023/05/14 10:57:19;;;;;;;;;;;;;;;22.15;33.15;101832.81;5061407;28;19966;-73
2023/05/14 10:59:46;;;;;;;;;;;;;;;21.69;33.11;101836.09;5036420;28;19933;-73
2023/05/14 11:02:21;;;;;;;;;;;;;;;21.60;34.69;101827.09;5061462;28;19953;-73
2023/05/14 11:04:51;;;;;;;;;;;;;;;21.35;33.33;101831.38;5049502;28;19935;-73
2023/05/14 11:07:18;;;;;;;;;;;;;;;21.49;33.11;101821.94;5057559;28;19975;-73
2023/05/14 11:09:45;;;;;;;;;;;;;;;21.62;34.22;101816.69;5042216;28;20027;-73
2023/05/14 11:12:11;;;;;;;;;;;;;;;21.79;33.54;101820.22;5050616;28;20314;-73
2023/05/14 11:14:36;;;;;;;;;;;;;;;21.48;34.48;101812.16;5048150;28;19950;-75
2023/05/14 11:17:02;;;;;;;;;;;;;;;21.68;34.71;101809.97;5044393;28;20316;-74
2023/05/14 11:19:27;;;;;;;;;;;;;;;22.03;35.81;101808.84;5066022;28;19931;-72
2023/05/14 11:21:53;;;;;;;;;;;;;;;22.71;34.09;101808.31;5048543;28;19957;-73
2023/05/14 11:24:18;;;;;;;;;;;;;;;22.50;31.67;101809.00;5062066;28;20278;-74
2023/05/14 11:26:44;;;;;;;;;;;;;;;22.48;33.58;101799.50;5057823;28;19953;-73
2023/05/14 11:29:09;;;;;;;;;;;;;;;22.20;33.48;101810.78;5056940;28;19935;-72
2023/05/14 11:31:35;;;;;;;;;;;;;;;21.72;33.45;101797.28;5067938;28;19939;-74
2023/05/14 11:34:02;;;;;;;;;;;;;;;21.70;34.46;101796.81;5061540;28;19953;-73
2023/05/14 11:36:28;;;;;;;;;;;;;;;21.53;34.00;101794.84;5051538;28;19927;-72
2023/05/14 11:38:53;;;;;;;;;;;;;;;21.40;33.95;101798.50;5070222;28;20417;-74
2023/05/14 11:41:21;;;;;;;;;;;;;;;21.57;34.89;101797.75;5062579;28;19930;-75
2023/05/14 11:43:47;;;;;;;;;;;;;;;21.57;33.76;101787.66;5070074;28;20441;-73
2023/05/14 11:46:17;;;;;;;;;;;;;;;21.76;33.79;101790.09;5065991;28;19930;-72
2023/05/14 11:48:43;;;;;;;;;;;;;;;21.63;34.30;101782.84;5065824;28;19958;-73
2023/05/14 11:51:08;;;;;;;;;;;;;;;21.89;33.63;101783.66;5050981;28;19986;-72
2023/05/14 11:53:34;;;;;;;;;;;;;;;21.90;34.05;101782.53;5064916;28;20049;-73
2023/05/14 11:56:01;;;;;;;;;;;;;;;21.96;34.39;101780.47;5047242;28;20447;-72
2023/05/14 11:58:30;;;;;;;;;;;;;;;22.00;33.88;101774.03;5065372;28;19994;-72
2023/05/14 12:00:56;;;;;;;;;;;;;;;22.52;33.06;101773.97;5062848;28;20424;-73
2023/05/14 12:03:24;;;;;;;;;;;;;;;23.25;33.31;101770.34;5062886;28;19964;-72
2023/05/14 12:06:01;;;;;;;;;;;;;;;23.07;31.13;101777.81;5059599;28;19970;-73
2023/05/14 12:08:27;;;;;;;;;;;;;;;23.07;30.17;101770.41;5065013;28;19958;-74
2023/05/14 12:10:53;;;;;;;;;;;;;;;21.90;30.97;101766.19;5048218;28;19941;-72
2023/05/14 12:13:19;;;;;;;;;;;;;;;21.74;31.70;101760.41;5059946;28;20316;-72
2023/05/14 12:15:45;;;;;;;;;;;;;;;21.93;33.00;101768.25;5055856;28;20538;-71
2023/05/14 12:18:11;;;;;;;;;;;;;;;22.04;32.23;101768.75;5062613;28;19998;-71
2023/05/14 12:20:37;;;;;;;;;;;;;;;21.79;32.56;101759.44;5051887;28;20375;-73
2023/05/14 12:23:02;;;;;;;;;;;;;;;23.12;30.79;101762.03;5058647;28;19952;-71
2023/05/14 12:25:28;;;;;;;;;;;;;;;23.60;29.70;101760.75;5059160;28;19940;-73
2023/05/14 12:27:53;;;;;;;;;;;;;;;24.24;30.52;101759.56;5042173;28;20342;-73
2023/05/14 12:30:19;;;;;;;;;;;;;;;23.91;28.64;101762.28;5056274;28;19927;-72
2023/05/14 12:32:45;;;;;;;;;;;;;;;23.43;29.73;101745.25;5057584;28;19952;-72
2023/05/14 12:35:10;;;;;;;;;;;;;;;23.78;28.98;101747.00;5039544;28;19932;-74